createdAt,value
2018-04-13T04:01:51.499Z,99821.16
2018-04-13T04:04:54.070Z,99833.96
2018-04-13T04:08:02.278Z,99840.44
2018-04-13T04:11:10.744Z,99844.84
2018-04-13T04:14:13.248Z,99850.70
2018-04-13T04:17:15.739Z,99845.03
2018-04-13T04:20:30.038Z,99849.84
2018-04-13T04:23:44.254Z,99854.81
2018-04-13T04:26:48.470Z,99854.39
2018-04-13T04:29:51.020Z,99853.77
2018-04-13T04:32:53.519Z,99855.73
2018-04-13T04:35:56.055Z,99856.06
2018-04-13T04:38:58.536Z,99862.88
2018-04-13T04:42:01.076Z,99862.98
2018-04-13T04:45:09.380Z,99860.72
2018-04-13T04:48:11.895Z,99872.09
2018-04-13T04:51:19.922Z,99858.04
2018-04-13T04:54:22.421Z,99866.91
2018-04-13T04:57:24.935Z,99860.09
2018-04-13T05:00:27.454Z,99870.27
2018-04-13T05:03:29.969Z,99885.81
2018-04-13T05:06:38.297Z,99889.66
2018-04-13T05:09:46.671Z,99900.11
2018-04-13T05:12:49.174Z,99892.30
2018-04-13T05:15:51.679Z,99903.77
2018-04-13T05:19:00.017Z,99909.67
2018-04-13T05:22:02.539Z,99911.88
2018-04-13T05:25:05.023Z,99913.98
2018-04-13T05:28:13.402Z,99919.23
2018-04-13T05:31:21.377Z,99913.77
2018-04-13T05:34:23.857Z,99908.63
2018-04-13T05:37:26.373Z,99910.81
2018-04-13T05:40:34.591Z,99908.63
2018-04-13T05:43:37.090Z,99910.83
2018-04-13T05:46:39.601Z,99913.79
2018-04-13T05:49:42.107Z,99911.36
2018-04-13T05:52:44.622Z,99913.75
2018-04-13T05:55:49.184Z,99904.99
2018-04-13T05:58:51.698Z,99895.34
2018-04-13T06:01:59.841Z,99905.86
2018-04-13T06:05:02.381Z,99902.35
2018-04-13T06:08:04.921Z,99903.36
2018-04-13T06:11:07.398Z,99899.86
2018-04-13T06:14:09.928Z,99901.34
2018-04-13T06:17:12.476Z,99906.38
2018-04-13T06:20:14.973Z,99900.72
2018-04-13T06:23:17.510Z,99913.00
2018-04-13T06:26:20.003Z,99911.48
2018-04-13T06:29:33.928Z,99926.89
2018-04-13T06:32:36.494Z,99938.22
2018-04-13T06:35:39.065Z,99932.36
2018-04-13T06:38:41.836Z,99939.22
2018-04-13T06:41:44.359Z,99949.36
2018-04-13T06:44:46.878Z,99959.05
2018-04-13T06:47:49.389Z,99986.95
2018-04-13T06:50:51.891Z,99997.69
2018-04-13T06:54:06.899Z,100008.63
2018-04-13T06:57:12.325Z,100005.84
2018-04-13T07:00:24.626Z,100022.20
2018-04-13T07:03:27.135Z,100015.16
2018-04-13T07:06:29.703Z,100006.42
2018-04-13T07:09:32.309Z,100015.28
2018-04-13T07:12:37.866Z,100019.52
2018-04-13T07:15:46.107Z,100016.34
2018-04-13T07:18:48.610Z,100020.77
2018-04-13T07:21:56.985Z,100006.39
2018-04-13T07:24:59.503Z,100003.65
2018-04-13T07:28:07.915Z,100002.48
2018-04-13T07:31:10.434Z,100006.22
2018-04-13T07:34:12.927Z,100023.37
2018-04-13T07:37:27.177Z,100026.95
2018-04-13T07:40:41.219Z,100040.22
2018-04-13T07:43:49.474Z,100041.76
2018-04-13T07:46:57.574Z,100045.67
2018-04-13T07:50:00.070Z,100075.05
2018-04-13T07:53:02.558Z,100101.41
2018-04-13T07:56:10.893Z,100086.55
2018-04-13T07:59:13.975Z,100078.49
2018-04-13T08:02:22.880Z,100069.06
2018-04-13T08:05:30.769Z,100066.16
2018-04-13T08:08:33.274Z,100061.20
2018-04-13T08:11:35.796Z,100060.34
2018-04-13T08:14:44.320Z,100034.86
2018-04-13T08:17:46.771Z,100026.97
2018-04-13T08:20:49.296Z,100017.77
2018-04-13T08:23:57.757Z,100013.06
2018-04-13T08:27:00.268Z,100005.27
2018-04-13T08:30:08.394Z,100002.09
2018-04-13T08:33:10.952Z,100003.56
2018-04-13T08:36:13.559Z,100005.70
2018-04-13T08:39:21.715Z,100019.13
2018-04-13T08:42:24.216Z,100008.66
2018-04-13T08:45:28.046Z,100008.50
2018-04-13T08:48:30.596Z,99996.52
2018-04-13T08:51:38.925Z,99993.39
2018-04-13T08:54:47.301Z,99989.98
2018-04-13T08:57:55.534Z,99975.48
2018-04-13T09:01:03.742Z,99988.34
2018-04-13T09:04:06.263Z,99994.60
2018-04-13T09:07:14.571Z,99974.52
2018-04-13T09:10:17.082Z,99979.84
2018-04-13T09:13:19.603Z,99982.65
2018-04-13T09:16:28.095Z,99995.87
2018-04-13T09:19:31.307Z,100001.94
2018-04-13T09:22:33.848Z,100011.75
2018-04-13T09:25:48.011Z,100010.23
2018-04-13T09:28:56.075Z,100016.84
2018-04-13T09:31:58.610Z,100021.77
2018-04-13T09:35:06.843Z,100014.88
2018-04-13T09:38:09.353Z,100027.28
2018-04-13T09:41:11.864Z,100031.23
2018-04-13T09:44:14.998Z,100036.52
2018-04-13T09:47:23.104Z,100033.27
2018-04-13T09:50:25.803Z,100036.36
2018-04-13T09:53:34.077Z,100039.78
2018-04-13T09:56:36.609Z,100046.08
2018-04-13T09:59:44.840Z,100044.85
2018-04-13T10:02:47.387Z,100050.42
2018-04-13T10:05:55.828Z,100066.66
2018-04-13T10:08:58.348Z,100047.05
2018-04-13T10:12:00.845Z,100052.08
2018-04-13T10:15:03.364Z,100051.40
2018-04-13T10:18:05.882Z,100039.27
2018-04-13T10:21:08.431Z,100025.72
2018-04-13T10:24:10.953Z,100029.38
2018-04-13T10:27:19.227Z,100050.11
2018-04-13T10:30:21.751Z,100052.80
2018-04-13T10:33:24.245Z,100062.09
2018-04-13T10:36:26.748Z,100067.86
2018-04-13T10:39:29.283Z,100065.00
2018-04-13T10:42:31.767Z,100050.78
2018-04-13T10:45:34.289Z,100055.06
2018-04-13T10:48:42.731Z,100060.69
2018-04-13T10:51:45.275Z,100060.26
2018-04-13T10:54:47.804Z,100084.41
2018-04-13T10:57:56.112Z,100099.03
2018-04-13T11:00:58.628Z,100101.28
2018-04-13T11:04:06.841Z,100094.90
2018-04-13T11:07:09.385Z,100097.14
2018-04-13T11:10:23.540Z,100080.56
2018-04-13T11:13:26.019Z,100069.06
2018-04-13T11:16:28.511Z,100076.26
2018-04-13T11:19:36.644Z,100066.08
2018-04-13T11:22:39.165Z,100063.30
2018-04-13T11:25:41.660Z,100060.00
2018-04-13T11:28:44.172Z,100053.52
2018-04-13T11:31:46.712Z,100051.40
2018-04-13T11:34:49.248Z,100050.70
2018-04-13T11:37:57.412Z,100046.39
2018-04-13T11:40:59.957Z,100036.84
2018-04-13T11:44:13.902Z,100034.20
2018-04-13T11:47:16.432Z,100033.19
2018-04-13T11:50:18.930Z,100032.47
2018-04-13T11:53:21.465Z,100033.50
2018-04-13T11:56:23.993Z,100031.78
2018-04-13T11:59:32.432Z,100033.98
2018-04-13T12:02:34.989Z,100024.34
2018-04-13T12:05:37.482Z,100027.66
2018-04-13T12:08:40.022Z,100026.09
2018-04-13T12:11:42.551Z,100017.36
2018-04-13T12:14:45.139Z,100015.80
2018-04-13T12:17:47.667Z,100028.45
2018-04-13T12:20:50.206Z,100019.01
2018-04-13T12:23:52.737Z,100009.41
2018-04-13T12:26:55.262Z,99997.01
2018-04-13T12:29:58.202Z,99991.61
2018-04-13T12:33:00.773Z,99983.80
2018-04-13T12:36:03.425Z,99981.13
2018-04-13T12:39:06.929Z,99988.92
2018-04-13T12:42:09.470Z,99978.87
2018-04-13T12:45:12.002Z,99983.91
2018-04-13T12:48:14.563Z,99979.03
2018-04-13T12:51:17.126Z,99989.45
2018-04-13T12:54:19.712Z,99988.86
2018-04-13T12:57:22.301Z,99984.62
2018-04-13T13:00:24.823Z,99991.87
2018-04-13T13:03:27.473Z,99992.63
2018-04-13T13:06:30.029Z,99984.27
2018-04-13T13:09:32.573Z,99989.27
2018-04-13T13:12:35.131Z,99983.72
2018-04-13T13:15:37.723Z,99979.73
2018-04-13T13:18:40.210Z,99972.38
2018-04-13T13:21:42.762Z,99975.41
2018-04-13T13:24:45.389Z,99984.60
2018-04-13T13:27:47.897Z,99984.60
2018-04-13T13:30:50.390Z,99977.20
2018-04-13T13:33:52.912Z,99969.08
2018-04-13T13:36:55.476Z,99963.13
2018-04-13T13:39:57.995Z,99969.95
2018-04-13T13:43:01.487Z,99972.55
2018-04-13T13:46:04.029Z,99979.08
2018-04-13T13:49:06.565Z,99972.19
2018-04-13T13:52:09.223Z,99977.00
2018-04-13T13:55:11.768Z,99979.09
2018-04-13T13:58:14.327Z,99978.15
2018-04-13T14:01:16.842Z,99981.16
2018-04-13T14:04:19.381Z,99972.20
2018-04-13T14:07:21.910Z,99977.38
2018-04-13T14:10:24.898Z,99977.11
2018-04-13T14:13:27.432Z,99974.05
2018-04-13T14:16:29.962Z,99976.66
2018-04-13T14:19:32.485Z,99965.89
2018-04-13T14:22:35.142Z,99967.19
2018-04-13T14:25:37.686Z,99961.69
2018-04-13T14:28:40.269Z,99954.70
2018-04-13T14:31:42.770Z,99963.97
2018-04-13T14:34:46.307Z,99951.70
2018-04-13T14:37:48.824Z,99947.24
2018-04-13T14:40:51.383Z,99945.38
2018-04-13T14:43:53.958Z,99942.53
2018-04-13T14:46:56.528Z,99939.48
2018-04-13T14:49:59.048Z,99938.05
2018-04-13T14:53:01.669Z,99931.80
2018-04-13T14:56:04.339Z,99932.28
2018-04-13T14:59:06.886Z,99940.86
2018-04-13T15:02:09.514Z,99944.49
2018-04-13T15:05:12.151Z,99944.04
2018-04-13T15:08:14.696Z,99943.27
2018-04-13T15:11:17.201Z,99954.17
2018-04-13T15:14:19.757Z,99956.78
2018-04-13T15:17:22.249Z,99951.50
2018-04-13T15:20:24.770Z,99951.82
2018-04-13T15:23:27.541Z,99954.44
2018-04-13T15:26:30.069Z,99957.43
2018-04-13T15:29:32.624Z,99961.23
2018-04-13T15:32:35.152Z,99957.25
2018-04-13T15:35:37.742Z,99960.91
2018-04-13T15:38:40.295Z,99945.34
2018-04-13T15:41:42.832Z,99953.92
2018-04-13T15:44:45.499Z,99960.30
2018-04-13T15:47:48.161Z,99948.30
2018-04-13T15:50:50.700Z,99952.84
2018-04-13T15:53:53.234Z,99954.22
2018-04-13T15:56:55.762Z,99955.85
2018-04-13T15:59:58.308Z,99953.27
2018-04-13T16:03:00.832Z,99959.81
2018-04-13T16:06:03.359Z,99962.67
2018-04-13T16:09:05.900Z,99964.64
2018-04-13T16:12:08.456Z,99967.10
2018-04-13T16:15:11.139Z,99969.86
2018-04-13T16:18:13.718Z,99979.34
2018-04-13T16:21:16.277Z,99982.17
2018-04-13T16:24:18.824Z,99986.12
2018-04-13T16:27:21.340Z,99993.55
2018-04-13T16:30:23.861Z,99984.77
2018-04-13T16:33:26.448Z,99989.86
2018-04-13T16:36:29.730Z,99993.16
2018-04-13T16:39:32.314Z,99999.08
2018-04-13T16:42:34.848Z,99993.72
2018-04-13T16:45:37.398Z,99998.98
2018-04-13T16:48:39.916Z,100010.81
2018-04-13T16:51:42.503Z,100020.11
2018-04-13T16:54:45.080Z,100019.35
2018-04-13T16:57:47.730Z,100010.97
2018-04-13T17:00:50.276Z,100010.28
2018-04-13T17:03:52.803Z,100017.88
2018-04-13T17:06:55.713Z,100020.91
2018-04-13T17:09:58.420Z,100014.12
2018-04-13T17:13:01.021Z,100011.65
2018-04-13T17:16:03.613Z,100001.90
2018-04-13T17:19:06.300Z,100006.19
2018-04-13T17:22:08.881Z,100008.34
2018-04-13T17:25:11.527Z,100005.40
2018-04-13T17:28:14.863Z,100004.33
2018-04-13T17:31:17.638Z,99997.55
2018-04-13T17:34:20.307Z,100002.23
2018-04-13T17:37:24.068Z,100020.47
2018-04-13T17:40:26.741Z,100022.05
2018-04-13T17:43:29.379Z,100027.23
2018-04-13T17:46:32.081Z,100042.41
2018-04-13T17:49:34.889Z,100047.80
2018-04-13T17:52:38.293Z,100051.76
2018-04-13T17:55:40.887Z,100066.88
2018-04-13T17:58:43.433Z,100091.83
2018-04-13T18:01:46.838Z,100145.13
2018-04-13T18:04:49.452Z,100161.64
2018-04-13T18:07:52.138Z,100169.06
2018-04-13T18:10:54.798Z,100151.77
2018-04-13T18:13:57.401Z,100156.30
2018-04-13T18:17:00.011Z,100153.44
2018-04-13T18:20:02.676Z,100170.14
2018-04-13T18:23:05.232Z,100177.22
2018-04-13T18:26:07.823Z,100166.77
2018-04-13T18:29:10.506Z,100163.33
2018-04-13T18:32:13.257Z,100172.55
2018-04-13T18:35:15.908Z,100179.75
2018-04-13T18:38:18.483Z,100167.61
2018-04-13T18:41:21.101Z,100150.78
2018-04-13T18:44:23.718Z,100151.99
2018-04-13T18:47:26.396Z,100164.15
2018-04-13T18:50:29.112Z,100178.98
2018-04-13T18:53:31.656Z,100199.34
2018-04-13T18:56:34.287Z,100200.31
2018-04-13T18:59:37.160Z,100195.20
2018-04-13T19:02:39.924Z,100196.28
2018-04-13T19:05:42.560Z,100197.33
2018-04-13T19:08:45.168Z,100192.28
2018-04-13T19:11:48.355Z,100193.63
2018-04-13T19:14:51.722Z,100194.72
2018-04-13T19:17:54.409Z,100208.29
2018-04-13T19:20:57.045Z,100201.08
2018-04-13T19:24:00.153Z,100192.08
2018-04-13T19:27:03.031Z,100193.98
2018-04-13T19:30:05.632Z,100190.63
2018-04-13T19:33:08.491Z,100185.18
2018-04-13T19:36:11.245Z,100176.64
2018-04-13T19:39:13.953Z,100167.90
2018-04-13T19:42:16.816Z,100163.00
2018-04-13T19:45:19.553Z,100147.94
2018-04-13T19:48:22.266Z,100137.86
2018-04-13T19:51:24.876Z,100129.73
2018-04-13T19:54:27.779Z,100124.42
2018-04-13T19:57:30.450Z,100123.36
2018-04-13T20:00:33.185Z,100118.08
2018-04-13T20:03:35.983Z,100111.30
2018-04-13T20:06:38.618Z,100108.53
2018-04-13T20:09:41.280Z,100119.40
2018-04-13T20:12:44.272Z,100117.63
2018-04-13T20:15:46.942Z,100124.52
2018-04-13T20:18:49.584Z,100131.86
2018-04-13T20:21:52.358Z,100139.27
2018-04-13T20:24:55.700Z,100141.55
2018-04-13T20:27:58.412Z,100142.20
2018-04-13T20:31:01.245Z,100134.69
2018-04-13T20:34:04.008Z,100134.81
2018-04-13T20:37:06.675Z,100128.87
2018-04-13T20:40:09.268Z,100129.27
2018-04-13T20:43:12.084Z,100142.25
2018-04-13T20:46:14.949Z,100147.55
2018-04-13T20:49:17.901Z,100158.16
2018-04-13T20:52:20.726Z,100164.49
2018-04-13T20:55:23.387Z,100162.05
2018-04-13T20:58:26.620Z,100175.61
2018-04-13T21:01:29.207Z,100187.73
2018-04-13T21:04:31.799Z,100196.77
2018-04-13T21:07:34.372Z,100200.80
2018-04-13T21:10:37.049Z,100205.60
2018-04-13T21:13:41.303Z,100205.85
2018-04-13T21:16:43.948Z,100235.59
2018-04-13T21:19:46.631Z,100242.45
2018-04-13T21:22:49.241Z,100246.62
2018-04-13T21:25:52.005Z,100255.30
2018-04-13T21:28:54.667Z,100256.22
2018-04-13T21:31:57.246Z,100261.44
2018-04-13T21:34:59.958Z,100258.33
2018-04-13T21:38:03.294Z,100262.95
2018-04-13T21:41:05.844Z,100264.57
2018-04-13T21:44:08.614Z,100266.97
2018-04-13T21:47:11.128Z,100271.39
2018-04-13T21:50:13.650Z,100277.09
2018-04-13T21:53:16.244Z,100273.56
2018-04-13T21:56:18.779Z,100269.83
2018-04-13T21:59:21.357Z,100280.02
2018-04-13T22:02:23.929Z,100287.69
2018-04-13T22:05:26.553Z,100302.66
2018-04-13T22:08:29.174Z,100301.08
2018-04-13T22:11:31.774Z,100299.20
2018-04-13T22:14:45.225Z,100297.56
2018-04-13T22:17:47.843Z,100307.24
2018-04-13T22:20:50.402Z,100304.16
2018-04-13T22:23:52.946Z,100316.84
2018-04-13T22:26:55.450Z,100318.21
2018-04-13T22:29:58.039Z,100324.16
2018-04-13T22:33:00.548Z,100325.45
2018-04-13T22:36:03.068Z,100323.82
2018-04-13T22:39:06.436Z,100329.16
2018-04-13T22:42:09.018Z,100336.78
2018-04-13T22:45:11.626Z,100340.57
2018-04-13T22:48:14.767Z,100336.13
2018-04-13T22:51:17.449Z,100339.27
2018-04-13T22:54:19.976Z,100344.70
2018-04-13T22:57:22.534Z,100352.63
2018-04-13T23:00:25.093Z,100364.04
2018-04-13T23:03:27.674Z,100368.47
2018-04-13T23:06:30.213Z,100384.92
2018-04-13T23:09:32.804Z,100384.34
2018-04-13T23:12:35.441Z,100388.73
2018-04-13T23:15:37.974Z,100389.68
2018-04-13T23:18:40.711Z,100388.56
2018-04-13T23:21:43.317Z,100391.23
2018-04-13T23:24:45.849Z,100391.81
2018-04-13T23:27:48.381Z,100390.55
2018-04-13T23:30:50.993Z,100385.46
2018-04-13T23:33:53.745Z,100394.81
2018-04-13T23:36:56.343Z,100396.14
2018-04-13T23:39:58.830Z,100394.84
2018-04-13T23:43:01.343Z,100392.36
2018-04-13T23:46:03.896Z,100387.41
2018-04-13T23:49:06.431Z,100390.30
